createdAt,value
2023-01-13T00:01:17.483Z,97.28
2023-01-13T00:03:46.403Z,100.00
2023-01-13T00:06:15.964Z,100.00
2023-01-13T00:08:43.768Z,100.00
2023-01-13T00:11:12.062Z,100.00
2023-01-13T00:13:41.150Z,99.32
2023-01-13T00:16:12.283Z,100.00
2023-01-13T00:18:40.000Z,97.32
2023-01-13T00:21:09.612Z,97.11
2023-01-13T00:23:37.724Z,98.19
2023-01-13T00:26:07.897Z,100.00
2023-01-13T00:28:35.784Z,96.74
2023-01-13T00:31:08.199Z,97.88
2023-01-13T00:33:36.702Z,97.33
2023-01-13T00:36:06.374Z,95.08
2023-01-13T00:38:35.763Z,100.00
2023-01-13T00:41:05.242Z,100.00
2023-01-13T00:43:33.761Z,100.00
2023-01-13T00:46:02.041Z,96.25
2023-01-13T00:48:32.695Z,90.64
2023-01-13T00:51:01.979Z,90.36
2023-01-13T00:53:30.578Z,96.88
2023-01-13T00:56:01.969Z,95.45
2023-01-13T00:58:33.107Z,94.73
2023-01-13T01:01:01.611Z,95.62
2023-01-13T01:03:31.292Z,96.51
2023-01-13T01:06:04.641Z,90.09
2023-01-13T01:08:32.439Z,88.39
2023-01-13T01:11:07.978Z,97.41
2023-01-13T01:13:36.407Z,89.94
2023-01-13T01:16:07.239Z,90.74
2023-01-13T01:18:37.528Z,94.56
2023-01-13T01:21:06.445Z,92.24
2023-01-13T01:23:35.130Z,90.85
2023-01-13T01:26:03.835Z,86.33
2023-01-13T01:28:32.036Z,91.50
2023-01-13T01:30:59.969Z,87.14
2023-01-13T01:33:28.079Z,92.43
2023-01-13T01:35:57.519Z,100.00
2023-01-13T01:38:25.267Z,100.00
2023-01-13T01:40:53.051Z,100.00
2023-01-13T01:43:40.153Z,100.00
2023-01-13T01:46:08.199Z,100.00
2023-01-13T01:48:41.879Z,100.00
2023-01-13T01:51:14.322Z,100.00
2023-01-13T01:53:42.883Z,100.00
2023-01-13T01:56:12.159Z,100.00
2023-01-13T01:58:45.713Z,100.00
2023-01-13T02:01:14.304Z,100.00
2023-01-13T02:03:46.283Z,100.00
2023-01-13T02:06:17.154Z,100.00
2023-01-13T02:08:45.279Z,100.00
2023-01-13T02:11:42.688Z,100.00
2023-01-13T02:14:10.524Z,99.83
2023-01-13T02:16:41.881Z,100.00
2023-01-13T02:19:29.926Z,100.00
2023-01-13T02:22:20.163Z,100.00
2023-01-13T02:25:06.196Z,100.00
2023-01-13T02:27:53.825Z,95.61
2023-01-13T02:31:01.177Z,97.72
2023-01-13T02:33:59.690Z,100.00
2023-01-13T02:36:36.120Z,100.00
2023-01-13T02:39:11.185Z,100.00
2023-01-13T02:42:01.596Z,99.29
2023-01-13T02:44:34.961Z,97.56
2023-01-13T02:47:10.419Z,98.94
2023-01-13T02:49:45.086Z,98.18
2023-01-13T02:52:17.103Z,97.90
2023-01-13T02:54:49.363Z,99.40
2023-01-13T02:57:19.388Z,100.00
2023-01-13T02:59:48.933Z,100.00
2023-01-13T03:02:21.382Z,100.00
2023-01-13T03:04:57.735Z,100.00
2023-01-13T03:07:58.372Z,100.00
2023-01-13T03:10:48.931Z,100.00
2023-01-13T03:13:32.105Z,100.00
2023-01-13T03:16:09.941Z,100.00
2023-01-13T03:18:46.521Z,100.00
2023-01-13T03:21:21.438Z,100.00
2023-01-13T03:23:52.822Z,100.00
2023-01-13T03:26:27.713Z,100.00
2023-01-13T03:29:00.106Z,100.00
2023-01-13T03:31:33.238Z,100.00
2023-01-13T03:34:08.681Z,100.00
2023-01-13T03:36:40.050Z,100.00
2023-01-13T03:39:13.340Z,100.00
2023-01-13T03:41:47.503Z,100.00
2023-01-13T03:44:23.557Z,100.00
2023-01-13T03:47:00.461Z,100.00
2023-01-13T03:49:37.607Z,100.00
2023-01-13T03:52:10.987Z,100.00
2023-01-13T03:54:46.467Z,100.00
2023-01-13T03:57:19.065Z,100.00
2023-01-13T03:59:52.071Z,100.00
2023-01-13T04:02:26.816Z,100.00
2023-01-13T04:04:59.909Z,100.00
2023-01-13T04:07:38.944Z,100.00
2023-01-13T04:10:09.773Z,100.00
2023-01-13T04:12:59.248Z,100.00
2023-01-13T04:15:29.204Z,100.00
2023-01-13T04:18:03.603Z,100.00
2023-01-13T04:20:33.182Z,100.00
2023-01-13T04:23:01.106Z,100.00
2023-01-13T04:25:28.919Z,100.00
2023-01-13T04:27:56.724Z,100.00
2023-01-13T04:30:24.631Z,100.00
2023-01-13T04:32:52.578Z,100.00
2023-01-13T04:35:20.396Z,100.00
2023-01-13T04:37:49.557Z,100.00
2023-01-13T04:40:17.892Z,100.00
2023-01-13T04:42:45.697Z,100.00
2023-01-13T04:45:14.143Z,100.00
2023-01-13T04:47:42.875Z,100.00
2023-01-13T04:50:12.470Z,100.00
2023-01-13T04:52:40.560Z,100.00
2023-01-13T04:55:11.427Z,100.00
2023-01-13T04:57:39.300Z,100.00
2023-01-13T05:00:08.746Z,100.00
2023-01-13T05:02:36.495Z,100.00
2023-01-13T05:05:04.571Z,100.00
2023-01-13T05:07:32.923Z,100.00
2023-01-13T05:10:00.835Z,100.00
2023-01-13T05:12:47.236Z,100.00
2023-01-13T05:15:34.331Z,100.00
2023-01-13T05:18:02.761Z,100.00
2023-01-13T05:20:30.494Z,100.00
2023-01-13T05:23:15.618Z,100.00
2023-01-13T05:25:44.815Z,100.00
2023-01-13T05:28:13.894Z,100.00
2023-01-13T05:30:43.600Z,100.00
2023-01-13T05:33:12.621Z,100.00
2023-01-13T05:35:41.548Z,100.00
2023-01-13T05:38:10.165Z,100.00
2023-01-13T05:40:59.335Z,100.00
2023-01-13T05:43:29.274Z,100.00
2023-01-13T05:45:59.825Z,100.00
2023-01-13T05:48:29.949Z,100.00
2023-01-13T05:50:58.410Z,100.00
2023-01-13T05:53:27.219Z,100.00
2023-01-13T05:55:55.780Z,100.00
2023-01-13T05:58:25.488Z,100.00
2023-01-13T06:00:59.929Z,100.00
2023-01-13T06:03:27.946Z,100.00
2023-01-13T06:05:58.778Z,100.00
2023-01-13T06:08:27.280Z,100.00
2023-01-13T06:10:55.164Z,100.00
2023-01-13T06:13:25.333Z,100.00
2023-01-13T06:15:57.139Z,100.00
2023-01-13T06:18:25.297Z,100.00
2023-01-13T06:20:53.088Z,100.00
2023-01-13T06:23:21.165Z,100.00
2023-01-13T06:25:56.586Z,100.00
2023-01-13T06:28:24.549Z,100.00
2023-01-13T06:30:58.783Z,100.00
2023-01-13T06:33:31.282Z,100.00
2023-01-13T06:36:02.706Z,100.00
2023-01-13T06:38:32.898Z,100.00
2023-01-13T06:41:00.607Z,100.00
2023-01-13T06:43:27.515Z,100.00
2023-01-13T06:45:57.790Z,100.00
2023-01-13T06:48:29.683Z,100.00
2023-01-13T06:50:57.551Z,100.00
2023-01-13T06:53:25.429Z,100.00
2023-01-13T06:55:53.176Z,100.00
2023-01-13T06:58:20.959Z,100.00
2023-01-13T07:00:51.294Z,100.00
2023-01-13T07:03:21.415Z,100.00
2023-01-13T07:05:53.409Z,100.00
2023-01-13T07:08:21.642Z,100.00
2023-01-13T07:10:49.406Z,100.00
2023-01-13T07:13:34.443Z,100.00
2023-01-13T07:16:04.940Z,100.00
2023-01-13T07:18:35.430Z,100.00
2023-01-13T07:21:05.874Z,100.00
2023-01-13T07:23:35.759Z,100.00
2023-01-13T07:26:03.988Z,100.00
2023-01-13T07:28:32.423Z,100.00
2023-01-13T07:31:00.779Z,100.00
2023-01-13T07:33:29.229Z,100.00
2023-01-13T07:36:00.067Z,100.00
2023-01-13T07:38:28.556Z,100.00
2023-01-13T07:40:57.442Z,100.00
2023-01-13T07:43:33.067Z,100.00
2023-01-13T07:46:02.908Z,100.00
2023-01-13T07:48:31.298Z,100.00
2023-01-13T07:51:04.274Z,100.00
2023-01-13T07:53:32.691Z,100.00
2023-01-13T07:56:01.479Z,100.00
2023-01-13T07:58:30.642Z,100.00
2023-01-13T08:00:59.008Z,100.00
2023-01-13T08:03:28.053Z,100.00
2023-01-13T08:05:55.900Z,100.00
2023-01-13T08:08:25.085Z,100.00
2023-01-13T08:10:52.886Z,100.00
2023-01-13T08:13:21.237Z,100.00
2023-01-13T08:15:50.901Z,100.00
2023-01-13T08:18:21.188Z,100.00
2023-01-13T08:20:49.862Z,100.00
2023-01-13T08:23:17.806Z,100.00
2023-01-13T08:25:47.388Z,100.00
2023-01-13T08:28:16.051Z,100.00
2023-01-13T08:30:44.440Z,100.00
2023-01-13T08:33:13.882Z,100.00
2023-01-13T08:35:42.896Z,100.00
2023-01-13T08:38:10.650Z,100.00
2023-01-13T08:40:40.332Z,100.00
2023-01-13T08:43:09.444Z,100.00
2023-01-13T08:45:37.358Z,100.00
2023-01-13T08:48:06.025Z,100.00
2023-01-13T08:50:34.024Z,100.00
2023-01-13T08:53:01.777Z,100.00
2023-01-13T08:55:29.635Z,100.00
2023-01-13T08:58:14.311Z,100.00
2023-01-13T09:00:45.050Z,100.00
2023-01-13T09:03:12.885Z,100.00
2023-01-13T09:05:40.704Z,100.00
2023-01-13T09:08:08.554Z,100.00
2023-01-13T09:10:36.936Z,100.00
2023-01-13T09:13:12.602Z,100.00
2023-01-13T09:15:42.151Z,100.00
2023-01-13T09:18:11.542Z,100.00
2023-01-13T09:20:40.075Z,100.00
2023-01-13T09:23:10.729Z,100.00
2023-01-13T09:25:38.930Z,100.00
2023-01-13T09:28:08.482Z,100.00
2023-01-13T09:30:37.916Z,100.00
2023-01-13T09:33:23.687Z,100.00
2023-01-13T09:35:53.134Z,100.00
2023-01-13T09:38:20.964Z,100.00
2023-01-13T09:40:50.729Z,100.00
2023-01-13T09:43:40.575Z,100.00
2023-01-13T09:46:36.609Z,100.00
2023-01-13T09:49:05.418Z,100.00
2023-01-13T09:51:41.640Z,100.00
2023-01-13T09:54:16.200Z,100.00
2023-01-13T09:56:44.215Z,100.00
2023-01-13T09:59:13.231Z,100.00
2023-01-13T10:01:51.774Z,100.00
2023-01-13T10:04:19.827Z,100.00
2023-01-13T10:06:54.129Z,100.00
2023-01-13T10:09:28.196Z,100.00
2023-01-13T10:12:16.409Z,100.00
2023-01-13T10:14:56.175Z,100.00
2023-01-13T10:17:31.653Z,100.00
2023-01-13T10:20:13.228Z,100.00
2023-01-13T10:23:01.912Z,100.00
2023-01-13T10:25:42.911Z,100.00
2023-01-13T10:28:12.706Z,100.00
2023-01-13T10:30:42.165Z,100.00
2023-01-13T10:33:17.581Z,100.00
2023-01-13T10:35:57.823Z,100.00
2023-01-13T10:38:30.245Z,100.00
2023-01-13T10:40:59.972Z,100.00
2023-01-13T10:43:29.211Z,100.00
2023-01-13T10:46:04.000Z,100.00
2023-01-13T10:48:38.672Z,100.00
2023-01-13T10:51:25.229Z,100.00
2023-01-13T10:54:00.508Z,100.00
2023-01-13T10:56:31.279Z,100.00
2023-01-13T10:59:17.049Z,100.00
2023-01-13T11:01:58.238Z,100.00
2023-01-13T11:04:32.324Z,100.00
2023-01-13T11:07:04.652Z,100.00
2023-01-13T11:09:34.150Z,100.00
2023-01-13T11:12:03.071Z,100.00
2023-01-13T11:14:39.523Z,100.00
2023-01-13T11:17:38.530Z,100.00
2023-01-13T11:20:18.576Z,100.00
2023-01-13T11:22:49.013Z,100.00
2023-01-13T11:25:24.158Z,100.00
2023-01-13T11:27:59.052Z,100.00
2023-01-13T11:30:35.432Z,100.00
2023-01-13T11:33:17.972Z,100.00
2023-01-13T11:35:49.914Z,100.00
2023-01-13T11:38:28.458Z,100.00
2023-01-13T11:41:04.858Z,100.00
2023-01-13T11:43:39.425Z,100.00
2023-01-13T11:46:07.663Z,100.00
2023-01-13T11:48:44.031Z,100.00
2023-01-13T11:51:26.298Z,100.00
2023-01-13T11:54:01.246Z,100.00
2023-01-13T11:56:53.215Z,100.00
2023-01-13T11:59:55.938Z,100.00
2023-01-13T12:02:40.727Z,100.00
2023-01-13T12:05:20.231Z,100.00
2023-01-13T12:07:59.981Z,100.00
2023-01-13T12:10:43.846Z,100.00
2023-01-13T12:13:24.320Z,100.00
2023-01-13T12:16:24.579Z,100.00
2023-01-13T12:19:28.035Z,100.00
2023-01-13T12:22:12.632Z,100.00
2023-01-13T12:24:49.373Z,100.00
2023-01-13T12:27:23.696Z,100.00
2023-01-13T12:29:58.310Z,100.00
2023-01-13T12:32:34.493Z,100.00
2023-01-13T12:35:18.516Z,100.00
2023-01-13T12:37:54.045Z,100.00
2023-01-13T12:40:38.867Z,100.00
2023-01-13T12:43:34.210Z,100.00
2023-01-13T12:46:53.196Z,100.00
2023-01-13T12:49:28.625Z,100.00
2023-01-13T12:52:13.838Z,100.00
2023-01-13T12:55:13.696Z,100.00
2023-01-13T12:58:14.178Z,100.00
2023-01-13T13:00:58.065Z,100.00
2023-01-13T13:03:32.243Z,100.00
2023-01-13T13:06:07.387Z,100.00
2023-01-13T13:09:03.672Z,100.00
2023-01-13T13:12:02.125Z,100.00
2023-01-13T13:15:04.636Z,100.00
2023-01-13T13:17:45.420Z,100.00
2023-01-13T13:20:53.865Z,100.00
2023-01-13T13:23:47.978Z,100.00
2023-01-13T13:26:25.087Z,100.00
2023-01-13T13:29:29.826Z,100.00
2023-01-13T13:32:19.249Z,100.00
2023-01-13T13:34:53.941Z,100.00
2023-01-13T13:38:09.621Z,100.00
2023-01-13T13:41:03.214Z,100.00
2023-01-13T13:43:56.215Z,100.00
2023-01-13T13:46:44.083Z,100.00
2023-01-13T13:49:12.148Z,100.00
2023-01-13T13:51:45.188Z,100.00
2023-01-13T13:54:16.466Z,100.00
2023-01-13T13:56:47.950Z,100.00
2023-01-13T13:59:19.995Z,100.00
2023-01-13T14:01:51.785Z,100.00
2023-01-13T14:04:23.439Z,100.00
2023-01-13T14:06:54.528Z,100.00
2023-01-13T14:09:23.525Z,100.00
2023-01-13T14:12:01.528Z,100.00
2023-01-13T14:14:30.043Z,100.00
2023-01-13T14:16:58.728Z,100.00
2023-01-13T14:19:32.571Z,100.00
2023-01-13T14:22:02.238Z,100.00
2023-01-13T14:24:31.113Z,100.00
2023-01-13T14:27:11.489Z,100.00
2023-01-13T14:29:39.655Z,100.00
2023-01-13T14:32:08.827Z,100.00
2023-01-13T14:34:37.799Z,100.00
2023-01-13T14:37:24.875Z,100.00
2023-01-13T14:39:52.683Z,100.00
2023-01-13T14:42:22.537Z,100.00
2023-01-13T14:44:52.093Z,100.00
2023-01-13T14:47:23.898Z,100.00
2023-01-13T14:49:58.982Z,100.00
2023-01-13T14:52:29.165Z,100.00
2023-01-13T14:55:25.481Z,100.00
2023-01-13T14:57:54.843Z,100.00
2023-01-13T15:00:24.970Z,100.00
2023-01-13T15:03:08.446Z,100.00
2023-01-13T15:05:47.578Z,100.00
2023-01-13T15:08:37.979Z,100.00
2023-01-13T15:11:08.228Z,100.00
2023-01-13T15:13:52.411Z,100.00
2023-01-13T15:16:25.035Z,100.00
2023-01-13T15:18:53.615Z,100.00
2023-01-13T15:21:22.043Z,100.00
2023-01-13T15:23:50.210Z,100.00
2023-01-13T15:26:21.382Z,100.00
2023-01-13T15:28:51.611Z,100.00
2023-01-13T15:31:20.322Z,100.00
2023-01-13T15:33:48.559Z,100.00
2023-01-13T15:36:24.211Z,100.00
2023-01-13T15:38:52.432Z,100.00
2023-01-13T15:41:41.909Z,100.00
2023-01-13T15:44:31.322Z,100.00
2023-01-13T15:47:02.110Z,100.00
2023-01-13T15:49:36.223Z,100.00
2023-01-13T15:52:05.498Z,100.00
2023-01-13T15:54:33.291Z,100.00
2023-01-13T15:57:01.108Z,100.00
2023-01-13T15:59:30.273Z,100.00
2023-01-13T16:01:58.121Z,100.00
2023-01-13T16:04:25.973Z,100.00
2023-01-13T16:06:53.808Z,100.00
2023-01-13T16:09:21.699Z,100.00
2023-01-13T16:11:49.505Z,100.00
2023-01-13T16:14:17.281Z,100.00
2023-01-13T16:16:46.461Z,100.00
2023-01-13T16:19:14.610Z,100.00
2023-01-13T16:21:42.468Z,100.00
2023-01-13T16:24:10.348Z,100.00
2023-01-13T16:26:38.981Z,100.00
2023-01-13T16:29:07.831Z,100.00
2023-01-13T16:31:36.171Z,100.00
2023-01-13T16:34:06.308Z,100.00
2023-01-13T16:36:36.777Z,100.00
2023-01-13T16:39:06.154Z,100.00
2023-01-13T16:41:34.790Z,100.00
2023-01-13T16:44:06.088Z,100.00
2023-01-13T16:46:34.466Z,100.00
2023-01-13T16:49:05.982Z,100.00
2023-01-13T16:51:34.264Z,100.00
2023-01-13T16:54:02.332Z,100.00
2023-01-13T16:56:32.326Z,100.00
2023-01-13T16:59:03.144Z,100.00
2023-01-13T17:01:32.410Z,100.00
2023-01-13T17:04:00.840Z,100.00
2023-01-13T17:06:33.956Z,100.00
2023-01-13T17:09:03.167Z,100.00
2023-01-13T17:11:31.044Z,100.00
2023-01-13T17:13:58.909Z,100.00
2023-01-13T17:16:28.240Z,100.00
2023-01-13T17:18:56.577Z,100.00
2023-01-13T17:21:24.648Z,100.00
2023-01-13T17:23:53.814Z,100.00
2023-01-13T17:26:33.795Z,100.00
2023-01-13T17:29:02.601Z,100.00
2023-01-13T17:31:31.195Z,100.00
2023-01-13T17:33:59.297Z,100.00
2023-01-13T17:36:27.162Z,100.00
2023-01-13T17:38:57.535Z,100.00
2023-01-13T17:41:26.227Z,100.00
2023-01-13T17:43:54.228Z,100.00
2023-01-13T17:46:23.106Z,100.00
2023-01-13T17:48:52.701Z,100.00
2023-01-13T17:51:22.502Z,100.00
2023-01-13T17:53:50.471Z,100.00
2023-01-13T17:56:19.770Z,100.00
2023-01-13T17:58:47.856Z,100.00
2023-01-13T18:01:18.355Z,100.00
2023-01-13T18:03:46.906Z,100.00
2023-01-13T18:06:17.480Z,100.00
2023-01-13T18:08:45.849Z,100.00
2023-01-13T18:11:14.287Z,100.00
2023-01-13T18:13:43.812Z,100.00
2023-01-13T18:16:14.059Z,100.00
2023-01-13T18:18:43.822Z,100.00
2023-01-13T18:21:35.798Z,100.00
2023-01-13T18:24:21.061Z,100.00
2023-01-13T18:27:06.271Z,100.00
2023-01-13T18:29:35.353Z,100.00
2023-01-13T18:32:03.204Z,100.00
2023-01-13T18:34:30.953Z,100.00
2023-01-13T18:36:58.752Z,100.00
2023-01-13T18:39:26.765Z,100.00
2023-01-13T18:42:11.796Z,100.00
2023-01-13T18:44:40.950Z,100.00
2023-01-13T18:47:09.058Z,100.00
2023-01-13T18:49:37.016Z,100.00
2023-01-13T18:52:05.172Z,100.00
2023-01-13T18:54:33.037Z,100.00
2023-01-13T18:57:02.792Z,100.00
2023-01-13T18:59:31.020Z,100.00
2023-01-13T19:02:00.393Z,100.00
2023-01-13T19:04:28.522Z,100.00
2023-01-13T19:07:00.871Z,100.00
2023-01-13T19:09:29.768Z,100.00
2023-01-13T19:11:59.170Z,100.00
2023-01-13T19:14:37.667Z,100.00
2023-01-13T19:17:09.776Z,100.00
2023-01-13T19:19:42.212Z,100.00
2023-01-13T19:22:10.793Z,100.00
2023-01-13T19:24:41.833Z,100.00
2023-01-13T19:27:09.978Z,100.00
2023-01-13T19:29:37.835Z,100.00
2023-01-13T19:32:15.623Z,100.00
2023-01-13T19:34:44.140Z,100.00
2023-01-13T19:37:12.159Z,100.00
2023-01-13T19:39:40.240Z,100.00
2023-01-13T19:42:25.900Z,100.00
2023-01-13T19:45:11.137Z,100.00
2023-01-13T19:47:40.944Z,100.00
2023-01-13T19:50:10.745Z,100.00
2023-01-13T19:52:38.536Z,100.00
2023-01-13T19:55:07.279Z,100.00
2023-01-13T19:57:35.098Z,100.00
2023-01-13T20:00:03.970Z,100.00
2023-01-13T20:02:32.409Z,100.00
2023-01-13T20:05:05.613Z,100.00
2023-01-13T20:07:35.141Z,100.00
2023-01-13T20:10:03.337Z,100.00
2023-01-13T20:12:31.410Z,100.00
2023-01-13T20:14:59.151Z,100.00
2023-01-13T20:17:26.980Z,100.00
2023-01-13T20:19:54.784Z,100.00
2023-01-13T20:22:24.087Z,100.00
2023-01-13T20:24:55.131Z,100.00
2023-01-13T20:27:24.818Z,100.00
2023-01-13T20:29:52.766Z,100.00
2023-01-13T20:32:20.511Z,100.00
2023-01-13T20:34:48.391Z,100.00
2023-01-13T20:37:16.212Z,100.00
2023-01-13T20:39:45.789Z,100.00
2023-01-13T20:42:34.241Z,100.00
2023-01-13T20:45:02.327Z,100.00
2023-01-13T20:47:31.210Z,100.00
2023-01-13T20:50:00.003Z,100.00
2023-01-13T20:52:28.940Z,100.00
2023-01-13T20:54:58.022Z,100.00
2023-01-13T20:57:25.860Z,100.00
2023-01-13T20:59:53.655Z,100.00
2023-01-13T21:02:23.212Z,100.00
2023-01-13T21:04:50.982Z,100.00
2023-01-13T21:07:19.059Z,100.00
2023-01-13T21:09:46.940Z,100.00
2023-01-13T21:12:35.317Z,100.00
2023-01-13T21:15:16.995Z,100.00
2023-01-13T21:18:02.381Z,100.00
2023-01-13T21:20:33.053Z,100.00
2023-01-13T21:23:02.581Z,100.00
2023-01-13T21:25:31.160Z,100.00
2023-01-13T21:28:05.485Z,100.00
2023-01-13T21:30:33.513Z,100.00
2023-01-13T21:33:03.839Z,100.00
2023-01-13T21:35:31.752Z,100.00
2023-01-13T21:37:59.769Z,100.00
2023-01-13T21:40:27.638Z,100.00
2023-01-13T21:43:12.988Z,100.00
2023-01-13T21:45:59.743Z,100.00
2023-01-13T21:48:27.919Z,100.00
2023-01-13T21:50:55.733Z,100.00
2023-01-13T21:53:23.556Z,100.00
2023-01-13T21:55:52.329Z,100.00
2023-01-13T21:58:20.521Z,100.00
2023-01-13T22:00:50.030Z,100.00
2023-01-13T22:03:18.809Z,100.00
2023-01-13T22:05:47.195Z,100.00
2023-01-13T22:08:14.976Z,100.00
2023-01-13T22:10:57.273Z,100.00
2023-01-13T22:13:43.197Z,100.00
2023-01-13T22:16:12.473Z,100.00
2023-01-13T22:18:40.264Z,100.00
2023-01-13T22:21:08.096Z,100.00
2023-01-13T22:23:35.913Z,100.00
2023-01-13T22:26:04.282Z,100.00
2023-01-13T22:28:34.311Z,100.00
2023-01-13T22:31:02.894Z,100.00
2023-01-13T22:33:32.098Z,100.00
2023-01-13T22:36:00.146Z,100.00
2023-01-13T22:38:27.933Z,100.00
2023-01-13T22:40:59.066Z,100.00
2023-01-13T22:43:27.992Z,100.00
2023-01-13T22:45:59.679Z,100.00
2023-01-13T22:48:28.550Z,100.00
2023-01-13T22:50:57.771Z,100.00
2023-01-13T22:53:25.609Z,100.00
2023-01-13T22:55:56.599Z,100.00
2023-01-13T22:58:24.726Z,100.00
2023-01-13T23:00:52.701Z,100.00
2023-01-13T23:03:20.624Z,100.00
2023-01-13T23:05:48.459Z,100.00
2023-01-13T23:08:17.591Z,100.00
2023-01-13T23:10:45.394Z,100.00
2023-01-13T23:13:13.187Z,100.00
2023-01-13T23:15:41.073Z,100.00
2023-01-13T23:18:08.849Z,100.00
2023-01-13T23:20:36.865Z,100.00
2023-01-13T23:23:04.940Z,100.00
2023-01-13T23:25:34.202Z,100.00
2023-01-13T23:28:02.014Z,100.00
2023-01-13T23:30:30.141Z,100.00
2023-01-13T23:32:58.016Z,100.00
2023-01-13T23:35:25.756Z,100.00
2023-01-13T23:37:53.725Z,100.00
2023-01-13T23:40:21.572Z,100.00
2023-01-13T23:42:50.755Z,100.00
2023-01-13T23:45:18.475Z,100.00
2023-01-13T23:47:46.223Z,100.00
2023-01-13T23:50:14.056Z,100.00
2023-01-13T23:52:41.911Z,100.00
2023-01-13T23:55:10.612Z,100.00
2023-01-13T23:57:40.712Z,100.00
